Time;durP1;ratioP1;P1;durP2;ratioP2;P2;SDS_P1;SDS_P2;PMS_P1;PMS_P2;Temp;Humidity;BMP_temperature;BMP_pressure;BME280_temperature;BME280_humidity;BME280_pressure;Samples;Min_cycle;Max_cycle;Signal;HPM_P1;HPM_P2
2023/07/16 00:00:32;;;;;;;7.07;2.30;;;17.10;99.90;;;16.78;100.00;97706.72;5069116;28;20553;-85
2023/07/16 00:02:59;;;;;;;3.95;2.03;;;17.10;99.90;;;16.83;100.00;97712.56;5066702;28;20044;-85
2023/07/16 00:05:29;;;;;;;8.07;2.30;;;17.10;99.90;;;16.72;100.00;97694.88;5067528;28;20059;-85
2023/07/16 00:07:56;;;;;;;8.13;2.03;;;17.10;99.90;;;16.75;100.00;97700.88;5070908;28;20048;-86
2023/07/16 00:10:23;;;;;;;7.15;1.75;;;17.10;99.90;;;16.73;100.00;97691.31;5069648;28;20104;-85
2023/07/16 00:12:50;;;;;;;6.68;1.95;;;17.10;99.90;;;16.68;100.00;97682.91;5052942;28;20059;-86
2023/07/16 00:15:20;;;;;;;4.22;2.25;;;17.00;99.90;;;16.68;100.00;97661.13;5066083;28;20056;-85
2023/07/16 00:17:47;;;;;;;5.97;1.60;;;17.10;99.90;;;16.67;100.00;97662.03;5052593;28;20417;-85
2023/07/16 00:20:14;;;;;;;4.72;2.05;;;17.10;99.90;;;16.66;100.00;97658.59;5087067;28;20048;-84
2023/07/16 00:22:42;;;;;;;10.40;2.10;;;17.10;99.90;;;16.66;100.00;97666.44;5069591;28;20052;-85
2023/07/16 00:25:09;;;;;;;4.35;1.90;;;17.10;99.90;;;16.64;100.00;97704.19;5051847;28;20044;-87
2023/07/16 00:27:36;;;;;;;5.85;1.95;;;17.10;99.90;;;16.68;100.00;97706.50;5070435;28;20044;-88
2023/07/16 00:30:04;;;;;;;7.95;2.40;;;17.00;99.90;;;16.69;100.00;97663.66;5088870;28;20101;-86
2023/07/16 00:32:31;;;;;;;7.20;2.25;;;17.00;99.90;;;16.67;100.00;97648.94;5069589;28;20105;-86
2023/07/16 00:35:03;;;;;;;6.25;1.75;;;17.00;99.90;;;16.74;100.00;97668.59;5053885;28;20065;-87
2023/07/16 00:37:30;;;;;;;4.75;2.10;;;17.00;99.90;;;16.61;100.00;97702.59;5069535;28;20059;-87
2023/07/16 00:39:57;;;;;;;7.47;2.35;;;16.90;99.90;;;16.61;100.00;97699.97;5076254;28;20060;-85
2023/07/16 00:42:29;;;;;;;7.68;2.10;;;17.00;99.90;;;16.59;100.00;97696.63;5075523;28;20142;-87
2023/07/16 00:44:56;;;;;;;7.78;2.00;;;16.90;99.90;;;16.59;100.00;97685.31;5072979;28;20052;-87
2023/07/16 00:47:24;;;;;;;6.38;2.13;;;17.00;99.90;;;16.58;100.00;97694.09;5072067;28;20040;-87
2023/07/16 00:49:55;;;;;;;5.43;2.05;;;16.90;99.90;;;16.54;100.00;97692.63;5051296;28;20064;-86
2023/07/16 00:52:22;;;;;;;6.07;1.90;;;17.00;99.90;;;16.49;100.00;97700.78;5051776;28;20040;-87
2023/07/16 00:54:50;;;;;;;6.28;1.83;;;16.90;99.90;;;16.42;100.00;97723.94;5057912;28;20549;-87
2023/07/16 00:57:26;;;;;;;8.40;2.50;;;16.80;99.90;;;16.36;100.00;97713.81;5079024;28;20049;-85
2023/07/16 00:59:53;;;;;;;7.50;2.20;;;16.80;99.90;;;16.38;100.00;97708.50;5076927;28;20079;-84
2023/07/16 01:02:21;;;;;;;6.50;2.92;;;16.70;99.90;;;16.30;100.00;97736.00;5054425;28;20052;-86
2023/07/16 01:04:48;;;;;;;6.25;1.88;;;16.70;99.90;;;16.35;100.00;97724.41;5070246;28;20139;-86
2023/07/16 01:07:16;;;;;;;6.18;2.20;;;16.80;99.90;;;16.32;100.00;97728.06;5077958;28;20046;-86
2023/07/16 01:09:44;;;;;;;5.97;1.77;;;16.70;99.90;;;16.35;100.00;97742.72;5055373;28;20070;-87
2023/07/16 01:12:12;;;;;;;3.67;1.80;;;16.70;99.90;;;16.30;100.00;97729.94;5059041;28;20045;-87
2023/07/16 01:14:40;;;;;;;5.78;2.13;;;16.70;99.90;;;16.20;100.00;97728.84;5061184;28;20144;-86
2023/07/16 01:17:13;;;;;;;6.65;1.80;;;16.70;99.90;;;16.25;100.00;97745.09;5056853;28;20397;-84
2023/07/16 01:19:40;;;;;;;7.93;1.77;;;16.70;99.90;;;16.19;100.00;97750.72;5075988;28;20055;-85
2023/07/16 01:22:10;;;;;;;8.07;2.33;;;16.60;99.90;;;16.19;100.00;97750.72;5076724;28;20048;-86
2023/07/16 01:24:50;;;;;;;6.90;1.95;;;16.60;99.90;;;16.23;100.00;97760.91;5092322;28;20135;-88
2023/07/16 01:27:48;;;;;;;6.53;1.83;;;16.50;99.90;;;16.16;100.00;97746.50;5074369;28;20440;-85
2023/07/16 01:30:17;;;;;;;7.57;2.00;;;16.60;99.90;;;16.12;100.00;97745.00;5093919;28;20480;-84
2023/07/16 01:32:46;;;;;;;5.82;1.50;;;16.60;99.90;;;16.18;100.00;97751.66;5091636;28;20052;-86
2023/07/16 01:35:14;;;;;;;8.10;2.20;;;16.60;99.90;;;16.14;100.00;97761.47;5072535;28;20142;-84
2023/07/16 01:37:42;;;;;;;10.25;2.22;;;16.50;99.90;;;16.17;100.00;97753.44;5054878;28;20098;-84
2023/07/16 01:40:09;;;;;;;5.70;1.80;;;16.50;99.90;;;16.18;100.00;97756.91;5067784;28;20051;-85
2023/07/16 01:42:37;;;;;;;5.13;1.52;;;16.60;99.90;;;16.15;100.00;97747.47;5052850;28;20044;-86
2023/07/16 01:45:05;;;;;;;6.07;1.58;;;16.50;99.90;;;16.15;100.00;97759.69;5071768;28;20097;-86
2023/07/16 01:48:16;;;;;;;9.30;2.25;;;16.50;99.90;;;16.00;100.00;97758.88;5075395;28;20050;-86
2023/07/16 01:50:43;;;;;;;6.78;2.00;;;16.50;99.90;;;15.97;100.00;97764.31;5071665;28;20043;-86
2023/07/16 01:53:10;;;;;;;6.80;1.90;;;16.50;99.90;;;15.98;100.00;97761.59;5056553;28;20056;-86
2023/07/16 01:55:37;;;;;;;8.95;2.13;;;16.50;99.90;;;16.02;100.00;97770.94;5066842;28;20106;-85
2023/07/16 01:58:08;;;;;;;11.32;2.42;;;16.40;99.90;;;15.92;100.00;97767.22;5055195;28;20432;-87
2023/07/16 02:00:36;;;;;;;8.90;2.15;;;16.40;99.90;;;15.92;100.00;97768.97;5053982;28;20052;-89
2023/07/16 02:03:03;;;;;;;11.63;1.73;;;16.40;99.90;;;15.97;100.00;97772.16;5056667;28;20496;-88
2023/07/16 02:05:31;;;;;;;7.55;1.88;;;16.40;99.90;;;15.97;100.00;97762.53;5047338;28;20127;-86
2023/07/16 02:07:58;;;;;;;5.53;1.65;;;16.40;99.90;;;15.94;100.00;97770.56;5053011;28;20355;-87
2023/07/16 02:10:25;;;;;;;7.00;2.20;;;16.30;99.90;;;15.85;100.00;97782.44;5086666;28;20044;-85
2023/07/16 02:12:55;;;;;;;5.40;2.17;;;16.30;99.90;;;15.84;100.00;97775.50;5055544;28;20439;-87
2023/07/16 02:15:22;;;;;;;11.35;1.92;;;16.30;99.90;;;15.77;100.00;97776.00;5051660;28;20045;-87
2023/07/16 02:17:49;;;;;;;8.13;2.13;;;16.30;99.90;;;15.76;100.00;97779.53;5068667;28;20055;-86
2023/07/16 02:20:16;;;;;;;10.77;2.65;;;16.30;99.90;;;15.66;100.00;97769.56;5055377;28;20134;-86
2023/07/16 02:22:43;;;;;;;10.80;2.22;;;16.20;99.90;;;15.69;100.00;97789.47;5070300;28;20054;-86
2023/07/16 02:25:10;;;;;;;6.90;1.90;;;16.20;99.90;;;15.76;100.00;97795.22;5070254;28;20106;-86
2023/07/16 02:27:37;;;;;;;5.45;1.70;;;16.10;99.90;;;15.69;100.00;97789.47;5072980;28;20056;-87
2023/07/16 02:30:06;;;;;;;11.18;2.05;;;16.10;99.90;;;15.69;100.00;97774.66;5072084;28;20569;-86
2023/07/16 02:32:34;;;;;;;10.65;2.15;;;16.10;99.90;;;15.68;100.00;97774.72;5070011;28;20051;-86
2023/07/16 02:35:03;;;;;;;9.82;2.30;;;16.10;99.90;;;15.59;100.00;97781.34;5067694;28;20528;-88
2023/07/16 02:37:30;;;;;;;7.88;2.10;;;16.10;99.90;;;15.60;100.00;97784.81;5068704;28;20043;-85
2023/07/16 02:39:57;;;;;;;10.57;1.98;;;16.10;99.90;;;15.61;100.00;97786.50;5059383;28;20369;-85
2023/07/16 02:42:24;;;;;;;6.70;1.80;;;16.10;99.90;;;15.65;100.00;97793.25;5086450;28;20412;-85
2023/07/16 02:44:51;;;;;;;8.93;1.70;;;16.00;99.90;;;15.77;100.00;97783.84;5071950;28;20056;-85
2023/07/16 02:47:18;;;;;;;13.68;3.35;;;16.20;99.90;;;15.56;100.00;97789.41;5077082;28;20075;-85
2023/07/16 02:49:45;;;;;;;8.40;1.50;;;16.20;99.90;;;15.61;100.00;97795.19;5057210;28;20098;-84
2023/07/16 02:52:12;;;;;;;7.43;2.20;;;16.10;99.90;;;15.55;100.00;97798.16;5055605;28;20079;-86
2023/07/16 02:54:41;;;;;;;9.48;1.88;;;16.10;99.90;;;15.53;100.00;97791.34;5067329;28;20048;-86
2023/07/16 02:57:08;;;;;;;10.82;1.88;;;16.10;99.90;;;15.53;100.00;97786.09;5090565;28;20645;-86
2023/07/16 02:59:35;;;;;;;6.72;2.08;;;16.10;99.90;;;15.33;100.00;97800.38;5055401;28;20127;-86
2023/07/16 03:02:03;;;;;;;10.55;1.70;;;15.90;99.90;;;15.34;100.00;97796.81;5066005;28;20048;-85
2023/07/16 03:04:30;;;;;;;10.25;2.83;;;15.90;99.90;;;15.35;100.00;97793.25;5053845;28;20064;-85
2023/07/16 03:07:00;;;;;;;9.10;2.00;;;15.90;99.90;;;15.30;100.00;97797.91;5055478;28;20052;-85
2023/07/16 03:09:27;;;;;;;9.30;2.17;;;15.90;99.90;;;15.34;100.00;97795.03;5053659;28;20048;-85
2023/07/16 03:11:54;;;;;;;8.27;2.20;;;15.90;99.90;;;15.29;100.00;97809.31;5050888;28;20109;-86
2023/07/16 03:14:21;;;;;;;7.18;1.90;;;15.80;99.90;;;15.26;100.00;97808.56;5087524;28;20044;-85
2023/07/16 03:16:48;;;;;;;11.35;2.03;;;15.80;99.90;;;15.31;100.00;97799.63;5071402;28;20136;-85
2023/07/16 03:19:15;;;;;;;6.90;2.15;;;15.80;99.90;;;15.28;100.00;97803.25;5088530;28;20040;-86
2023/07/16 03:21:42;;;;;;;9.02;1.92;;;15.70;99.90;;;15.26;100.00;97810.34;5071934;28;20054;-86
2023/07/16 03:24:09;;;;;;;8.38;2.58;;;15.70;99.90;;;15.19;100.00;97799.41;5058589;28;20493;-84
2023/07/16 03:26:36;;;;;;;8.23;1.70;;;15.70;99.90;;;15.24;100.00;97814.81;5070987;28;20101;-87
2023/07/16 03:29:03;;;;;;;7.10;1.77;;;15.80;99.90;;;15.25;100.00;97816.50;5067957;28;20043;-86
2023/07/16 03:31:30;;;;;;;8.40;2.10;;;15.70;99.90;;;15.24;100.00;97809.59;5068346;28;20043;-87
2023/07/16 03:34:00;;;;;;;8.77;2.05;;;15.70;99.90;;;15.15;100.00;97808.34;5053883;28;20507;-85
2023/07/16 03:36:29;;;;;;;8.07;1.73;;;15.70;99.90;;;15.13;100.00;97817.22;5067686;28;20048;-85
2023/07/16 03:38:56;;;;;;;9.05;2.08;;;15.70;99.90;;;15.14;100.00;97819.72;5053170;28;20052;-86
2023/07/16 03:41:23;;;;;;;6.78;1.90;;;15.70;99.90;;;15.09;100.00;97821.75;5054907;28;20550;-85
2023/07/16 03:43:50;;;;;;;9.98;2.15;;;15.70;99.90;;;15.13;100.00;97817.22;5082964;28;20094;-85
2023/07/16 03:46:17;;;;;;;10.52;2.30;;;15.70;99.90;;;15.21;100.00;97833.28;5066062;28;20162;-85
2023/07/16 03:48:45;;;;;;;11.57;2.65;;;15.60;99.90;;;15.06;100.00;97816.72;5065737;28;20044;-85
2023/07/16 03:51:12;;;;;;;11.30;2.15;;;15.60;99.90;;;15.14;100.00;97827.56;5067800;28;20116;-85
2023/07/16 03:53:39;;;;;;;8.45;1.70;;;;;;;15.16;100.00;97833.53;5051865;28;20044;-86
2023/07/16 03:56:07;;;;;;;10.48;2.08;;;15.60;99.90;;;15.11;100.00;97827.75;5055379;28;20044;-85
2023/07/16 03:58:33;;;;;;;9.27;2.30;;;15.60;99.90;;;15.10;100.00;97838.28;5069530;28;20166;-87
2023/07/16 04:01:01;;;;;;;8.93;2.40;;;15.60;99.90;;;15.11;100.00;97840.81;5072203;28;20058;-86
2023/07/16 04:03:31;;;;;;;6.00;2.05;;;15.60;99.90;;;15.04;100.00;97835.09;5052320;28;20056;-84
2023/07/16 04:06:06;;;;;;;8.40;1.83;;;15.60;99.90;;;15.02;100.00;97839.56;5084467;28;20052;-86
2023/07/16 04:08:33;;;;;;;11.70;2.30;;;15.50;99.90;;;15.05;100.00;97849.00;5071713;28;20072;-85
2023/07/16 04:11:00;;;;;;;14.07;3.03;;;15.50;99.90;;;15.00;100.00;97849.25;5045220;28;20570;-84
2023/07/16 04:13:30;;;;;;;9.30;2.70;;;15.50;99.90;;;15.01;100.00;97856.19;5087631;28;20497;-84
2023/07/16 04:16:00;;;;;;;12.05;2.20;;;15.50;99.90;;;15.04;100.00;97855.16;5069837;28;20060;-84
2023/07/16 04:18:27;;;;;;;9.82;2.80;;;15.50;99.90;;;15.07;100.00;97870.66;5073303;28;20055;-83
2023/07/16 04:20:55;;;;;;;9.30;2.20;;;15.50;99.90;;;15.06;100.00;97864.59;5071251;28;20040;-84
2023/07/16 04:23:22;;;;;;;8.15;2.50;;;15.50;99.90;;;15.05;100.00;97862.94;5057625;28;20523;-84
2023/07/16 04:25:54;;;;;;;8.80;2.80;;;15.50;99.90;;;14.99;100.00;97867.66;5069122;28;20579;-85
2023/07/16 04:28:22;;;;;;;10.45;2.45;;;15.50;99.90;;;14.99;100.00;97865.03;5072355;28;20054;-87
2023/07/16 04:30:51;;;;;;;11.00;2.08;;;15.40;99.90;;;14.99;100.00;97868.50;5072651;28;20087;-87
2023/07/16 04:33:19;;;;;;;10.48;2.25;;;15.40;99.90;;;14.98;100.00;97864.19;5052657;28;20413;-87
2023/07/16 04:35:52;;;;;;;9.38;2.85;;;15.40;99.90;;;15.01;100.00;97860.59;5055296;28;20059;-87
2023/07/16 04:38:26;;;;;;;16.05;2.20;;;15.50;99.90;;;15.07;100.00;97854.97;5054243;28;20059;-86
2023/07/16 04:40:55;;;;;;;9.13;2.63;;;15.50;99.90;;;14.94;100.00;97851.38;5084490;28;20048;-87
2023/07/16 04:43:25;;;;;;;10.27;2.78;;;15.50;99.90;;;14.99;100.00;97854.59;5072479;28;20067;-86
2023/07/16 04:45:58;;;;;;;9.77;2.30;;;15.50;99.90;;;15.01;100.00;97861.41;5070067;28;20055;-88
2023/07/16 04:48:26;;;;;;;;;;;15.50;99.90;;;14.99;100.00;97850.19;5056450;28;20054;-88
2023/07/16 04:50:53;;;;;;;13.25;2.80;;;15.50;99.90;;;14.96;100.00;97866.06;5078369;28;20355;-87
2023/07/16 04:53:22;;;;;;;7.50;2.30;;;15.50;99.90;;;14.97;100.00;97870.34;5056653;28;20055;-88
2023/07/16 04:55:49;;;;;;;8.23;2.20;;;15.50;99.90;;;15.10;100.00;97885.34;5072816;28;20116;-88
2023/07/16 04:58:17;;;;;;;9.50;2.47;;;15.40;99.90;;;15.03;100.00;97872.63;5071575;28;20041;-88
2023/07/16 05:00:44;;;;;;;9.68;2.80;;;15.50;99.90;;;15.14;100.00;97871.16;5068160;28;20092;-87
2023/07/16 05:03:13;;;;;;;10.93;2.42;;;15.50;99.90;;;15.19;100.00;97874.38;5059726;28;20093;-88
2023/07/16 05:05:40;;;;;;;9.45;2.20;;;15.50;99.90;;;15.17;100.00;97884.94;5072743;28;20048;-87
2023/07/16 05:08:07;;;;;;;9.70;2.30;;;15.60;99.90;;;15.12;100.00;97875.66;5072427;28;20447;-88
2023/07/16 05:10:36;;;;;;;13.10;2.72;;;15.60;99.90;;;15.18;100.00;97877.91;5070574;28;20105;-87
2023/07/16 05:13:06;;;;;;;8.57;2.47;;;15.60;99.90;;;15.17;100.00;97894.56;5067832;28;20440;-85
2023/07/16 05:15:35;;;;;;;7.75;2.22;;;15.60;99.90;;;15.33;100.00;97874.44;5053950;28;20044;-85
2023/07/16 05:18:02;;;;;;;12.15;2.55;;;15.70;99.90;;;15.24;100.00;97878.41;5065245;28;20041;-85
2023/07/16 05:20:30;;;;;;;11.23;2.40;;;15.70;99.90;;;15.15;100.00;97886.78;5054691;28;20040;-85
2023/07/16 05:22:57;;;;;;;9.75;2.50;;;15.60;99.90;;;15.24;100.00;97896.72;5067834;28;20493;-86
2023/07/16 05:25:24;;;;;;;10.68;2.38;;;15.70;99.90;;;15.37;100.00;97890.78;5066680;28;20105;-85
2023/07/16 05:27:51;;;;;;;10.98;2.63;;;15.70;99.90;;;15.37;100.00;97889.03;5066834;28;20051;-86
2023/07/16 05:30:21;;;;;;;8.98;2.08;;;15.80;99.90;;;15.33;100.00;97894.53;5057546;28;20052;-85
2023/07/16 05:32:48;;;;;;;9.88;2.35;;;15.70;99.90;;;15.43;100.00;97896.50;5085667;28;20078;-86
2023/07/16 05:35:18;;;;;;;14.18;3.00;;;15.90;99.90;;;15.31;100.00;97901.63;5066185;28;20131;-85
2023/07/16 05:37:45;;;;;;;10.15;2.72;;;15.90;99.90;;;15.43;100.00;97890.44;5072883;28;20075;-85
2023/07/16 05:40:12;;;;;;;10.68;3.08;;;15.90;99.90;;;15.45;100.00;97894.66;5087895;28;20048;-86
2023/07/16 05:42:39;;;;;;;11.32;3.28;;;16.00;99.90;;;15.37;100.00;97898.63;5068341;28;20049;-85
2023/07/16 05:45:07;;;;;;;8.98;3.13;;;15.80;99.90;;;15.39;100.00;97888.94;5087803;28;20044;-86
2023/07/16 05:47:34;;;;;;;11.20;2.58;;;15.90;99.90;;;15.50;100.00;97886.53;5070543;28;20090;-87
2023/07/16 05:50:01;;;;;;;12.80;2.95;;;16.00;99.90;;;15.46;100.00;97896.34;5067309;28;20060;-86
2023/07/16 05:52:28;;;;;;;10.32;3.00;;;15.90;99.90;;;15.47;100.00;97907.66;5068242;28;20481;-86
2023/07/16 05:54:58;;;;;;;13.55;3.22;;;15.90;99.90;;;15.45;100.00;97899.06;5067759;28;20094;-86
2023/07/16 05:57:26;;;;;;;13.73;3.42;;;15.90;99.90;;;15.32;100.00;97898.91;5053028;28;20044;-86
2023/07/16 05:59:53;;;;;;;8.77;2.65;;;15.90;99.90;;;15.54;100.00;97895.91;5049461;28;20056;-86
2023/07/16 06:02:28;;;;;;;8.15;2.83;;;15.90;99.90;;;15.50;100.00;97912.69;5069105;28;20174;-86
2023/07/16 06:04:55;;;;;;;12.45;2.83;;;15.90;99.90;;;15.41;100.00;97894.91;5053058;28;20040;-87
2023/07/16 06:07:23;;;;;;;11.43;2.97;;;15.90;99.90;;;15.62;100.00;97900.69;5053351;28;20140;-88
2023/07/16 06:09:50;;;;;;;11.93;3.15;;;15.90;99.90;;;15.80;100.00;97897.03;5068775;28;20044;-87
2023/07/16 06:12:17;;;;;;;12.73;2.83;;;16.00;99.90;;;15.79;100.00;97887.50;5069497;28;20056;-89
2023/07/16 06:14:47;;;;;;;9.20;2.78;;;16.10;99.90;;;15.87;100.00;97887.91;5065911;28;20049;-87
2023/07/16 06:17:17;;;;;;;8.15;2.75;;;16.10;99.90;;;15.73;100.00;97890.47;5071267;28;20038;-87
2023/07/16 06:19:44;;;;;;;13.07;3.15;;;16.10;99.90;;;15.77;100.00;97881.50;5048757;28;20040;-88
2023/07/16 06:22:11;;;;;;;8.50;3.40;;;16.20;99.90;;;15.92;100.00;97886.75;5084486;28;20050;-87
2023/07/16 06:24:38;;;;;;;10.35;2.65;;;16.20;99.90;;;15.98;100.00;97875.94;5083428;28;20055;-87
2023/07/16 06:27:06;;;;;;;12.73;3.08;;;16.30;99.90;;;15.98;100.00;97873.31;5064461;28;20047;-87
2023/07/16 06:29:33;;;;;;;17.25;4.00;;;16.30;99.90;;;16.07;100.00;97870.16;5064693;28;20080;-87
2023/07/16 06:32:00;;;;;;;7.88;2.15;;;16.40;99.90;;;15.86;100.00;97864.44;5066144;28;20090;-88
2023/07/16 06:34:28;;;;;;;14.93;3.25;;;16.40;99.90;;;16.09;100.00;97866.50;5062704;28;20126;-87
2023/07/16 06:36:55;;;;;;;7.35;2.40;;;16.40;99.90;;;16.02;100.00;97859.13;5062830;28;20045;-88
2023/07/16 06:39:22;;;;;;;12.88;3.38;;;16.40;99.90;;;15.95;100.00;97860.44;5050795;28;20761;-87
2023/07/16 06:41:49;;;;;;;10.52;3.00;;;16.50;99.90;;;16.17;100.00;97867.81;5052174;28;20060;-88
2023/07/16 06:44:16;;;;;;;10.40;2.90;;;16.60;99.90;;;16.26;100.00;97851.53;5086121;28;20077;-87
2023/07/16 06:46:44;;;;;;;8.60;3.10;;;16.70;99.90;;;16.38;100.00;97848.19;5083278;28;20044;-87
2023/07/16 06:49:11;;;;;;;13.80;3.13;;;16.70;99.90;;;16.51;100.00;97835.13;5083462;28;20127;-87
2023/07/16 06:51:38;;;;;;;11.90;3.10;;;16.90;99.90;;;16.63;100.00;97836.19;5053253;28;20051;-85
2023/07/16 06:54:06;;;;;;;10.40;3.55;;;16.90;99.90;;;16.52;100.00;97827.19;5062112;28;20040;-86
2023/07/16 06:56:33;;;;;;;9.90;2.90;;;17.10;99.90;;;16.70;100.00;97821.75;5051414;28;20055;-88
2023/07/16 06:59:00;;;;;;;12.30;3.28;;;17.10;99.90;;;16.54;100.00;97824.47;5053835;28;20055;-87
2023/07/16 07:01:27;;;;;;;12.18;2.83;;;17.00;99.90;;;16.87;100.00;97826.75;5063559;28;20101;-86
2023/07/16 07:03:55;;;;;;;9.50;2.80;;;17.00;99.90;;;16.72;100.00;97820.69;5072921;28;20051;-87
2023/07/16 07:06:25;;;;;;;10.88;2.92;;;17.10;99.90;;;16.86;100.00;97804.13;5067051;28;20109;-87
2023/07/16 07:08:52;;;;;;;8.70;2.90;;;17.10;99.90;;;16.85;100.00;97804.19;5064897;28;20044;-86
2023/07/16 07:11:20;;;;;;;9.32;3.10;;;17.20;99.90;;;16.68;100.00;97808.72;5053456;28;20063;-85
2023/07/16 07:13:47;;;;;;;10.70;3.42;;;17.10;99.90;;;16.68;100.00;97800.84;5051727;28;20056;-85
2023/07/16 07:16:14;;;;;;;15.48;4.15;;;17.20;99.90;;;16.75;100.00;97814.41;5084420;28;20055;-84
2023/07/16 07:18:45;;;;;;;11.82;3.17;;;17.20;99.90;;;17.00;100.00;97805.00;5068718;28;20150;-86
2023/07/16 07:21:12;;;;;;;17.00;4.03;;;17.30;99.90;;;17.03;100.00;97802.19;5068782;28;20090;-86
2023/07/16 07:23:42;;;;;;;9.48;3.55;;;17.50;99.90;;;16.87;100.00;97794.47;5053794;28;20522;-85
2023/07/16 07:26:09;;;;;;;13.90;3.40;;;17.50;99.90;;;17.09;100.00;97799.16;5065182;28;20128;-85
2023/07/16 07:28:38;;;;;;;7.78;2.67;;;17.60;99.90;;;17.24;100.00;97784.19;5065406;28;20059;-86
2023/07/16 07:31:06;;;;;;;10.05;2.97;;;17.70;99.90;;;17.28;100.00;97794.38;5061707;28;20106;-86
2023/07/16 07:33:33;;;;;;;8.75;3.03;;;17.60;99.90;;;17.02;100.00;97787.41;5080471;28;20043;-86
2023/07/16 07:36:00;;;;;;;11.82;3.60;;;17.60;99.90;;;16.97;100.00;97784.22;5067668;28;20044;-86
2023/07/16 07:38:28;;;;;;;12.32;3.95;;;17.50;99.90;;;16.85;100.00;97783.22;5084128;28;20036;-85
2023/07/16 07:40:55;;;;;;;14.48;3.17;;;17.50;99.90;;;16.81;100.00;97793.09;5069851;28;20048;-85
2023/07/16 07:43:22;;;;;;;9.80;3.17;;;17.30;99.90;;;16.96;100.00;97783.38;5069071;28;20040;-84
2023/07/16 07:45:49;;;;;;;12.77;3.28;;;17.30;99.90;;;16.79;100.00;97786.25;5084421;28;20110;-84
2023/07/16 07:48:16;;;;;;;9.60;2.83;;;17.20;99.90;;;16.98;100.00;97792.00;5068876;28;20048;-83
2023/07/16 07:50:43;;;;;;;13.48;3.40;;;17.40;99.90;;;17.06;100.00;97794.97;5071880;28;20052;-85
2023/07/16 07:53:10;;;;;;;6.63;2.33;;;17.40;99.90;;;16.75;100.00;97806.56;5057837;28;20587;-85
2023/07/16 07:55:37;;;;;;;7.22;3.13;;;17.10;99.90;;;16.81;100.00;97803.56;5071460;28;20063;-85
2023/07/16 07:58:04;;;;;;;11.30;3.03;;;17.20;99.90;;;16.82;100.00;97796.53;5055629;28;20066;-84
2023/07/16 08:00:31;;;;;;;13.18;3.03;;;17.30;99.90;;;17.31;100.00;97783.69;5069673;28;20055;-84
2023/07/16 08:03:01;;;;;;;15.60;3.47;;;17.60;99.90;;;17.29;100.00;97776.88;5070701;28;20059;-85
2023/07/16 08:05:29;;;;;;;13.38;2.83;;;17.60;99.90;;;17.37;100.00;97779.81;5070298;28;20051;-84
2023/07/16 08:07:56;;;;;;;9.90;2.58;;;17.70;99.90;;;17.24;100.00;97771.06;5088010;28;20054;-84
2023/07/16 08:10:23;;;;;;;11.43;2.42;;;17.70;99.90;;;17.51;100.00;97773.63;5056946;28;20504;-84
2023/07/16 08:12:50;;;;;;;7.85;2.63;;;17.70;99.90;;;17.57;100.00;97783.72;5074776;28;20542;-83
2023/07/16 08:15:18;;;;;;;9.00;2.53;;;17.80;99.90;;;17.41;100.00;97773.41;5058066;28;20044;-83
2023/07/16 08:17:46;;;;;;;11.73;2.78;;;17.80;99.90;;;17.69;100.00;97782.03;5054190;28;20073;-84
2023/07/16 08:20:13;;;;;;;14.02;3.13;;;18.00;99.90;;;18.25;100.00;97768.59;5071908;28;20059;-84
2023/07/16 08:22:40;;;;;;;7.25;2.15;;;18.40;99.90;;;17.96;100.00;97764.41;5053245;28;20094;-85
2023/07/16 08:25:08;;;;;;;11.02;2.85;;;18.40;99.90;;;18.43;100.00;97764.66;5076180;28;20051;-84
2023/07/16 08:27:35;;;;;;;15.20;2.90;;;18.50;99.90;;;18.41;100.00;97758.66;5063817;28;20056;-84
2023/07/16 08:30:02;;;;;;;9.43;2.97;;;18.70;99.90;;;18.25;100.00;97764.16;5048729;28;20051;-85
2023/07/16 08:32:44;;;;;;;10.77;3.00;;;18.80;99.90;;;18.79;100.00;97762.94;5066137;28;20050;-88
2023/07/16 08:35:31;;;;;;;11.05;2.75;;;19.00;99.90;;;18.70;100.00;97764.44;5076115;28;20155;-88
2023/07/16 08:38:22;;;;;;;10.13;2.40;;;18.90;99.90;;;18.58;100.00;97767.94;5066250;28;20500;-88
2023/07/16 08:41:26;;;;;;;11.38;2.33;;;18.80;99.90;;;18.89;100.00;97768.38;5065621;28;20488;-88
2023/07/16 08:44:07;;;;;;;12.50;3.63;;;19.00;99.90;;;19.43;100.00;97750.28;5083769;28;20054;-88
2023/07/16 08:46:41;;;;;;;9.30;2.97;;;19.10;99.90;;;19.10;100.00;97765.97;5064473;28;20052;-89
2023/07/16 08:49:33;;;;;;;12.85;2.78;;;19.30;99.90;;;19.88;100.00;97764.47;5061528;28;20128;-88
2023/07/16 08:52:44;;;;;;;10.93;3.08;;;19.30;99.90;;;19.40;100.00;97765.44;5068087;28;20076;-88
2023/07/16 08:55:20;;;;;;;20.35;9.40;;;19.40;99.90;;;20.19;100.00;97762.94;5066466;28;20081;-89
2023/07/16 08:58:08;;;;;;;24.00;13.68;;;19.60;99.90;;;20.49;100.00;97759.66;5054538;28;20044;-88
2023/07/16 09:01:18;;;;;;;;;;;;;;;;;;;;;
2023/07/16 09:03:50;;;;;;;13.35;3.15;;;20.00;99.90;;;20.64;100.00;97779.56;5080668;28;20422;-85
2023/07/16 09:06:17;;;;;;;10.93;3.53;;;20.70;99.90;;;20.58;100.00;97760.75;5049913;28;20357;-86
2023/07/16 09:08:45;;;;;;;13.82;6.18;;;21.20;99.90;;;20.67;100.00;97774.03;5068934;28;20040;-85
2023/07/16 09:11:13;;;;;;;8.82;1.73;;;21.50;99.90;;;20.18;100.00;97771.78;5051174;28;20048;-87
2023/07/16 09:13:46;;;;;;;9.57;2.17;;;21.00;99.90;;;19.10;100.00;97771.22;5083852;28;20054;-87
2023/07/16 09:16:16;;;;;;;10.23;2.38;;;20.30;99.90;;;19.92;100.00;97779.94;5066237;28;20041;-88
2023/07/16 09:18:45;;;;;;;7.73;1.83;;;20.90;99.90;;;20.12;100.00;97772.28;5075718;28;20060;-86
2023/07/16 09:21:12;;;;;;;9.75;2.67;;;21.60;99.90;;;20.46;100.00;97773.91;5075836;28;20189;-86
2023/07/16 09:23:41;;;;;;;11.27;2.28;;;22.10;99.90;;;20.13;100.00;97771.31;5075116;28;20085;-86
2023/07/16 09:26:08;;;;;;;7.30;1.65;;;21.90;99.90;;;20.54;100.00;97772.47;5080850;28;20075;-86
2023/07/16 09:28:36;;;;;;;6.47;2.10;;;22.30;99.90;;;20.88;100.00;97767.97;5093203;28;20056;-86
2023/07/16 09:31:07;;;;;;;8.93;1.85;;;22.70;99.90;;;21.38;100.00;97776.13;5069621;28;20455;-86
2023/07/16 09:33:35;;;;;;;7.85;2.40;;;22.30;99.90;;;21.56;100.00;97770.31;5069366;28;20075;-85
2023/07/16 09:36:05;;;;;;;5.13;1.42;;;22.90;99.90;;;21.63;100.00;97774.94;5087358;28;20044;-87
2023/07/16 09:38:33;;;;;;;8.85;2.40;;;22.30;99.90;;;21.64;100.00;97786.34;5048394;28;20048;-86
2023/07/16 09:41:02;;;;;;;10.23;2.17;;;22.20;99.90;;;21.40;100.00;97773.38;5069808;28;20055;-86
2023/07/16 09:43:30;;;;;;;10.77;2.33;;;22.30;99.90;;;21.21;100.00;97767.00;5065528;28;20067;-86
2023/07/16 09:45:58;;;;;;;8.70;1.83;;;22.70;99.90;;;21.09;100.00;97791.75;5063062;28;20355;-87
2023/07/16 09:48:25;;;;;;;13.73;2.70;;;22.60;99.90;;;21.08;100.00;97784.81;5051705;28;20044;-86
2023/07/16 09:50:53;;;;;;;6.32;2.13;;;22.30;99.90;;;20.98;100.00;97789.16;5068650;28;20121;-86
2023/07/16 09:53:21;;;;;;;8.68;2.80;;;22.60;99.90;;;21.02;100.00;97793.22;5067950;28;20119;-86
2023/07/16 09:55:53;;;;;;;10.25;2.22;;;22.70;99.90;;;21.48;100.00;97785.00;5066050;28;20504;-86
2023/07/16 09:58:22;;;;;;;7.90;2.33;;;22.40;99.90;;;21.82;100.00;97770.75;5044946;28;20052;-86
2023/07/16 10:00:53;;;;;;;7.50;2.17;;;22.80;99.90;;;22.54;100.00;97773.28;5050537;28;20048;-86
2023/07/16 10:03:23;;;;;;;10.40;2.90;;;23.20;99.90;;;21.95;100.00;97770.53;5047142;28;20048;-86
2023/07/16 10:06:08;;;;;;;10.50;2.03;;;23.20;99.90;;;21.77;100.00;97771.13;5048809;28;20075;-86
2023/07/16 10:09:03;;;;;;;6.03;1.58;;;23.00;99.90;;;22.31;100.00;97790.34;5047607;28;20107;-88
2023/07/16 10:11:57;;;;;;;7.78;2.35;;;22.70;99.90;;;21.56;100.00;97773.78;5052957;28;20064;-88
2023/07/16 10:14:42;;;;;;;9.60;1.75;;;22.30;99.90;;;21.92;100.00;97780.41;5046504;28;20040;-87
2023/07/16 10:17:22;;;;;;;6.78;2.28;;;22.40;99.90;;;22.39;100.00;97761.38;5063317;28;20051;-88
2023/07/16 10:26:46;;;;;;;7.90;2.38;;;23.00;99.90;;;22.90;100.00;97756.91;4980488;28;20058;-88
2023/07/16 10:29:24;;;;;;;6.07;2.63;;;23.20;99.90;;;22.68;100.00;97764.09;4954362;28;20420;-88